Time;durP1;ratioP1;P1;durP2;ratioP2;P2;SDS_P1;SDS_P2;PMS_P1;PMS_P2;Temp;Humidity;BMP_temperature;BMP_pressure;BME280_temperature;BME280_humidity;BME280_pressure;Samples;Min_cycle;Max_cycle;Signal;HPM_P1;HPM_P2
2022/04/06 04:40:49;;;;;;;1999.90;999.90;;;;;;;;;;5009112;28;20212;-68
2022/04/06 04:43:34;;;;;;;1999.90;999.90;;;;;;;;;;4995426;28;20211;-68
2022/04/06 04:46:19;;;;;;;1999.90;999.90;;;;;;;;;;4996374;28;20627;-68
2022/04/06 04:49:04;;;;;;;1999.90;999.90;;;;;;;;;;5001994;28;20215;-68
2022/04/06 04:51:49;;;;;;;1999.90;999.90;;;;;;;;;;4994578;28;20211;-68
2022/04/06 04:54:34;;;;;;;1999.90;999.90;;;;;;;;;;4994227;28;20289;-68
2022/04/06 04:57:20;;;;;;;1999.90;999.90;;;;;;;;;;4994757;28;20220;-68
2022/04/06 05:00:08;;;;;;;1999.90;999.90;;;;;;;;;;4993935;28;20223;-68
2022/04/06 05:02:53;;;;;;;1999.90;999.90;;;;;;;;;;4990865;28;20216;-65
2022/04/06 05:05:39;;;;;;;1999.90;999.90;;;;;;;;;;4994046;28;20473;-68
2022/04/06 05:08:24;;;;;;;1999.90;999.90;;;;;;;;;;4992526;28;20658;-67
2022/04/06 05:11:10;;;;;;;1999.90;999.90;;;;;;;;;;4994648;28;20262;-68
2022/04/06 05:13:56;;;;;;;1999.90;999.90;;;;;;;;;;4994713;28;20208;-67
2022/04/06 05:16:41;;;;;;;1999.90;999.90;;;;;;;;;;4994836;28;20728;-68
2022/04/06 05:19:26;;;;;;;1999.90;999.90;;;;;;;;;;4993982;28;20235;-68
2022/04/06 05:22:10;;;;;;;1999.90;999.90;;;;;;;;;;4994670;28;20211;-68
2022/04/06 05:24:55;;;;;;;1999.90;999.90;;;;;;;;;;4994430;28;20283;-66
2022/04/06 05:27:43;;;;;;;1999.90;999.90;;;;;;;;;;4993931;28;20227;-68
2022/04/06 05:30:32;;;;;;;1999.90;999.90;;;;;;;;;;4994128;28;20273;-67
2022/04/06 05:33:16;;;;;;;1999.90;999.90;;;;;;;;;;4994566;28;20327;-68
2022/04/06 05:36:01;;;;;;;1999.90;999.90;;;;;;;;;;4994460;28;20715;-68
2022/04/06 05:38:48;;;;;;;1999.90;999.90;;;;;;;;;;4996559;28;20230;-68
2022/04/06 05:41:33;;;;;;;1999.90;999.90;;;;;;;;;;5013927;28;20201;-68
2022/04/06 05:44:18;;;;;;;1999.90;999.90;;;;;;;;;;5013714;28;20345;-67
2022/04/06 05:47:05;;;;;;;1999.90;999.90;;;;;;;;;;5013677;28;20225;-67
2022/04/06 05:49:49;;;;;;;1999.90;999.90;;;;;;;;;;5012974;28;20230;-68
2022/04/06 05:52:34;;;;;;;1999.90;999.90;;;;;;;;;;5013731;28;20222;-68
2022/04/06 05:55:20;;;;;;;1999.90;999.90;;;;;;;;;;5012480;28;20214;-63
2022/04/06 05:58:04;;;;;;;1999.90;999.90;;;;;;;;;;4993192;28;20207;-66
2022/04/06 06:00:49;;;;;;;1999.90;999.90;;;;;;;;;;5009293;28;20259;-67
2022/04/06 06:03:36;;;;;;;1999.90;999.90;;;;;;;;;;5003995;28;20210;-68
2022/04/06 06:06:21;;;;;;;1999.90;999.90;;;;;;;;;;5013519;28;20685;-67
2022/04/06 06:09:06;;;;;;;1999.90;999.90;;;;;;;;;;4992558;28;20235;-65
2022/04/06 06:11:51;;;;;;;1999.90;999.90;;;;;;;;;;4993486;28;20260;-68
2022/04/06 06:14:36;;;;;;;1999.90;999.90;;;;;;;;;;4993412;28;20574;-68
2022/04/06 06:17:21;;;;;;;1999.90;999.90;;;;;;;;;;4993621;28;20688;-68
2022/04/06 06:20:08;;;;;;;1999.90;999.90;;;;;;;;;;4992982;28;20370;-68
2022/04/06 06:22:52;;;;;;;1999.90;999.90;;;;;;;;;;4993728;28;20290;-67
2022/04/06 06:25:37;;;;;;;1999.90;999.90;;;;;;;;;;4993555;28;20259;-67
2022/04/06 06:28:23;;;;;;;1999.90;999.90;;;;;;;;;;4992380;28;20215;-68
2022/04/06 06:31:07;;;;;;;1999.90;999.90;;;;;;;;;;4993504;28;20199;-68
2022/04/06 06:33:52;;;;;;;1999.90;999.90;;;;;;;;;;4993172;28;20728;-65
2022/04/06 06:36:39;;;;;;;1999.90;999.90;;;;;;;;;;4993335;28;20208;-67
2022/04/06 06:39:24;;;;;;;1999.90;999.90;;;;;;;;;;4992353;28;20238;-68
2022/04/06 06:42:08;;;;;;;1999.90;999.90;;;;;;;;;;4992638;28;20438;-68
2022/04/06 06:44:53;;;;;;;1999.90;999.90;;;;;;;;;;4993186;28;20234;-68
2022/04/06 06:47:40;;;;;;;1999.90;999.90;;;;;;;;;;4992572;28;20227;-67
2022/04/06 06:50:25;;;;;;;1999.90;999.90;;;;;;;;;;4993263;28;20230;-67
2022/04/06 06:53:11;;;;;;;1999.90;999.90;;;;;;;;;;5007591;28;20206;-67
2022/04/06 06:55:56;;;;;;;1999.90;999.90;;;;;;;;;;5012617;28;20214;-68
2022/04/06 06:58:41;;;;;;;1999.90;999.90;;;;;;;;;;5001251;28;20219;-67
2022/04/06 07:01:26;;;;;;;1999.90;999.90;;;;;;;;;;4992969;28;20203;-67
2022/04/06 07:04:10;;;;;;;1999.90;999.90;;;;;;;;;;4996952;28;20331;-69
2022/04/06 07:06:55;;;;;;;1999.90;999.90;;;;;;;;;;5008486;28;20633;-68
2022/04/06 07:09:41;;;;;;;1999.90;999.90;;;;;;;;;;5010618;28;20746;-67
2022/04/06 07:12:26;;;;;;;1999.90;999.90;;;;;;;;;;5009308;28;20233;-69
2022/04/06 07:15:12;;;;;;;1999.90;999.90;;;;;;;;;;5012348;28;20288;-68
2022/04/06 07:17:58;;;;;;;1999.90;999.90;;;;;;;;;;5011191;28;20257;-68
2022/04/06 07:20:42;;;;;;;1999.90;999.90;;;;;;;;;;5012122;28;20205;-68
2022/04/06 07:23:27;;;;;;;1999.90;999.90;;;;;;;;;;5012189;28;20214;-68
2022/04/06 07:26:16;;;;;;;1999.90;999.90;;;;;;;;;;5011860;28;20721;-68
2022/04/06 07:29:01;;;;;;;1999.90;999.90;;;;;;;;;;5011028;28;20656;-68
2022/04/06 07:31:46;;;;;;;1999.90;999.90;;;;;;;;;;5012032;28;20623;-68
2022/04/06 07:34:31;;;;;;;1999.90;999.90;;;;;;;;;;5012072;28;20333;-69
2022/04/06 07:37:16;;;;;;;1999.90;999.90;;;;;;;;;;5011565;28;20206;-68
2022/04/06 07:40:00;;;;;;;1999.90;999.90;;;;;;;;;;5010948;28;20653;-68
2022/04/06 07:42:48;;;;;;;1999.90;999.90;;;;;;;;;;5011628;28;20217;-68
2022/04/06 07:45:33;;;;;;;1999.90;999.90;;;;;;;;;;5012010;28;20210;-68
2022/04/06 07:48:18;;;;;;;1999.90;999.90;;;;;;;;;;5010905;28;20370;-68
2022/04/06 07:51:03;;;;;;;1999.90;999.90;;;;;;;;;;5011005;28;20207;-68
2022/04/06 07:53:48;;;;;;;1999.90;999.90;;;;;;;;;;4992266;28;20215;-68
2022/04/06 07:56:33;;;;;;;1999.90;999.90;;;;;;;;;;5000757;28;20218;-68
2022/04/06 07:59:20;;;;;;;1999.90;999.90;;;;;;;;;;4991377;28;20597;-67
2022/04/06 08:02:05;;;;;;;1999.90;999.90;;;;;;;;;;5004508;28;20744;-68
2022/04/06 08:04:50;;;;;;;1999.90;999.90;;;;;;;;;;5011679;28;20210;-68
2022/04/06 08:07:39;;;;;;;1999.90;999.90;;;;;;;;;;5011556;28;20312;-66
2022/04/06 08:10:24;;;;;;;1999.90;999.90;;;;;;;;;;5011570;28;20804;-68
2022/04/06 08:13:09;;;;;;;1999.90;999.90;;;;;;;;;;5006370;28;20207;-67
2022/04/06 08:15:57;;;;;;;1999.90;999.90;;;;;;;;;;5003037;28;20420;-67
2022/04/06 08:18:42;;;;;;;1999.90;999.90;;;;;;;;;;5014410;28;20238;-67
2022/04/06 08:21:28;;;;;;;1999.90;999.90;;;;;;;;;;5015245;28;20210;-67
2022/04/06 08:24:13;;;;;;;1999.90;999.90;;;;;;;;;;5014922;28;20219;-66
2022/04/06 08:26:58;;;;;;;1999.90;999.90;;;;;;;;;;5014545;28;20210;-66
2022/04/06 08:29:43;;;;;;;1999.90;999.90;;;;;;;;;;5013193;28;20748;-66
2022/04/06 08:32:30;;;;;;;1999.90;999.90;;;;;;;;;;5015141;28;20289;-68
2022/04/06 08:35:17;;;;;;;1999.90;999.90;;;;;;;;;;5014868;28;20685;-68
2022/04/06 08:38:03;;;;;;;1999.90;999.90;;;;;;;;;;5014178;28;20414;-68
2022/04/06 08:40:49;;;;;;;1999.90;999.90;;;;;;;;;;5014912;28;20210;-68
2022/04/06 08:43:34;;;;;;;1999.90;999.90;;;;;;;;;;5015013;28;20568;-67
2022/04/06 08:46:20;;;;;;;1999.90;999.90;;;;;;;;;;5014411;28;20310;-69
2022/04/06 08:49:06;;;;;;;1999.90;999.90;;;;;;;;;;5013282;28;20282;-68
2022/04/06 08:51:52;;;;;;;1999.90;999.90;;;;;;;;;;5014731;28;20227;-68
2022/04/06 08:54:37;;;;;;;1999.90;999.90;;;;;;;;;;5014652;28;20207;-68
2022/04/06 08:57:22;;;;;;;1999.90;999.90;;;;;;;;;;5014111;28;20206;-68
2022/04/06 09:00:09;;;;;;;1999.90;999.90;;;;;;;;;;5013529;28;20281;-68
2022/04/06 09:02:54;;;;;;;1999.90;999.90;;;;;;;;;;5005637;28;20286;-68
2022/04/06 09:05:41;;;;;;;1999.90;999.90;;;;;;;;;;5001650;28;20206;-68
2022/04/06 09:08:33;;;;;;;1999.90;999.90;;;;;;;;;;5012245;28;20222;-69
2022/04/06 09:11:20;;;;;;;1999.90;999.90;;;;;;;;;;5004498;28;20249;-68
2022/04/06 09:14:05;;;;;;;1999.90;999.90;;;;;;;;;;5014294;28;20279;-69
2022/04/06 09:17:00;;;;;;;1999.90;999.90;;;;;;;;;;5014634;28;20229;-69
2022/04/06 09:19:46;;;;;;;1999.90;999.90;;;;;;;;;;5012023;28;20407;-68
2022/04/06 09:22:37;;;;;;;1999.90;999.90;;;;;;;;;;5014101;28;20207;-68
2022/04/06 09:25:22;;;;;;;1999.90;999.90;;;;;;;;;;5014084;28;20206;-68
2022/04/06 09:28:08;;;;;;;1999.90;999.90;;;;;;;;;;5012534;28;20262;-69
2022/04/06 09:30:54;;;;;;;1999.90;999.90;;;;;;;;;;5012727;28;20633;-68
2022/04/06 09:33:41;;;;;;;1999.90;999.90;;;;;;;;;;4994349;28;20203;-67
2022/04/06 09:36:27;;;;;;;1999.90;999.90;;;;;;;;;;4994277;28;20211;-68
2022/04/06 09:39:13;;;;;;;1999.90;999.90;;;;;;;;;;4997684;28;20250;-67
2022/04/06 09:41:59;;;;;;;1999.90;999.90;;;;;;;;;;5002351;28;20257;-68
2022/04/06 09:47:51;;;;;;;1999.90;999.90;;;;;;;;;;5009827;28;20223;-66
2022/04/06 09:50:38;;;;;;;1999.90;999.90;;;;;;;;;;5000350;28;20918;-67
2022/04/06 09:53:25;;;;;;;1999.90;999.90;;;;;;;;;;5013498;28;20210;-67
2022/04/06 09:56:11;;;;;;;1999.90;999.90;;;;;;;;;;4993924;28;20575;-67
2022/04/06 09:58:57;;;;;;;1999.90;999.90;;;;;;;;;;4993105;28;20334;-68
2022/04/06 10:01:45;;;;;;;1999.90;999.90;;;;;;;;;;5011401;28;20214;-67
2022/04/06 10:04:31;;;;;;;1999.90;999.90;;;;;;;;;;5013359;28;20326;-67
2022/04/06 10:07:16;;;;;;;1999.90;999.90;;;;;;;;;;5001848;28;20752;-67
2022/04/06 10:10:01;;;;;;;1999.90;999.90;;;;;;;;;;4992835;28;20238;-66
2022/04/06 10:12:47;;;;;;;1999.90;999.90;;;;;;;;;;4993407;28;20290;-67
2022/04/06 10:15:34;;;;;;;1999.90;999.90;;;;;;;;;;4993388;28;20586;-68
2022/04/06 10:18:19;;;;;;;1999.90;999.90;;;;;;;;;;4994689;28;20354;-67
2022/04/06 10:21:06;;;;;;;1999.90;999.90;;;;;;;;;;5012725;28;20207;-63
2022/04/06 10:23:57;;;;;;;1999.90;999.90;;;;;;;;;;5012646;28;20769;-66
2022/04/06 10:26:48;;;;;;;1999.90;999.90;;;;;;;;;;5012578;28;20230;-66
2022/04/06 10:29:54;;;;;;;1999.90;999.90;;;;;;;;;;5012000;28;20342;-65
2022/04/06 10:32:39;;;;;;;1999.90;999.90;;;;;;;;;;5011708;28;20341;-64
2022/04/06 10:35:26;;;;;;;1999.90;999.90;;;;;;;;;;5012695;28;20206;-65
2022/04/06 10:38:15;;;;;;;1999.90;999.90;;;;;;;;;;5008697;28;20215;-67
2022/04/06 10:41:06;;;;;;;1999.90;999.90;;;;;;;;;;5006394;28;20219;-67
2022/04/06 10:43:52;;;;;;;1999.90;999.90;;;;;;;;;;5012655;28;20217;-66
2022/04/06 10:46:40;;;;;;;1999.90;999.90;;;;;;;;;;5012556;28;20203;-67
2022/04/06 10:49:25;;;;;;;1999.90;999.90;;;;;;;;;;5011366;28;20231;-67
2022/04/06 10:52:22;;;;;;;1999.90;999.90;;;;;;;;;;5011262;28;20787;-67
2022/04/06 10:55:08;;;;;;;1999.90;999.90;;;;;;;;;;5012169;28;20444;-68
2022/04/06 10:57:57;;;;;;;1999.90;999.90;;;;;;;;;;5011061;28;20572;-67
2022/04/06 11:00:42;;;;;;;1999.90;999.90;;;;;;;;;;5011934;28;20222;-67
2022/04/06 11:03:30;;;;;;;1999.90;999.90;;;;;;;;;;5012370;28;20214;-67
2022/04/06 11:06:35;;;;;;;1999.90;999.90;;;;;;;;;;5012184;28;20222;-67
2022/04/06 11:12:29;;;;;;;1999.90;999.90;;;;;;;;;;4993321;28;20697;-67
2022/04/06 11:15:20;;;;;;;1999.90;999.90;;;;;;;;;;4999997;28;20215;-67
2022/04/06 11:18:06;;;;;;;1999.90;999.90;;;;;;;;;;4991828;28;20583;-67
2022/04/06 11:21:01;;;;;;;1999.90;999.90;;;;;;;;;;4992884;28;20255;-67
2022/04/06 11:23:46;;;;;;;1999.90;999.90;;;;;;;;;;4992548;28;20207;-68
2022/04/06 11:26:38;;;;;;;1999.90;999.90;;;;;;;;;;4994964;28;20701;-67
2022/04/06 11:29:25;;;;;;;1999.90;999.90;;;;;;;;;;4999962;28;20302;-66
2022/04/06 11:32:11;;;;;;;1999.90;999.90;;;;;;;;;;5008958;28;20222;-67
2022/04/06 11:35:00;;;;;;;1999.90;999.90;;;;;;;;;;4995216;28;20319;-65
2022/04/06 11:37:48;;;;;;;1999.90;999.90;;;;;;;;;;5011520;28;20250;-67
2022/04/06 11:40:33;;;;;;;1999.90;999.90;;;;;;;;;;5011470;28;20592;-67
2022/04/06 11:43:19;;;;;;;1999.90;999.90;;;;;;;;;;5010197;28;20693;-66
2022/04/06 11:46:04;;;;;;;1999.90;999.90;;;;;;;;;;5000049;28;20203;-68
2022/04/06 11:48:49;;;;;;;1999.90;999.90;;;;;;;;;;5002970;28;20218;-67
2022/04/06 11:51:34;;;;;;;1999.90;999.90;;;;;;;;;;4993957;28;20212;-68
2022/04/06 11:54:20;;;;;;;1999.90;999.90;;;;;;;;;;4996313;28;20279;-68
2022/04/06 11:57:05;;;;;;;1999.90;999.90;;;;;;;;;;4996318;28;20298;-68
2022/04/06 11:59:54;;;;;;;1999.90;999.90;;;;;;;;;;4995476;28;20227;-68
2022/04/06 12:02:49;;;;;;;1999.90;999.90;;;;;;;;;;4996219;28;20210;-68
2022/04/06 12:05:46;;;;;;;1999.90;999.90;;;;;;;;;;4996105;28;20282;-68
2022/04/06 12:08:32;;;;;;;1999.90;999.90;;;;;;;;;;4995178;28;20244;-65
2022/04/06 12:11:21;;;;;;;1999.90;999.90;;;;;;;;;;4996203;28;20205;-68
2022/04/06 12:14:10;;;;;;;1999.90;999.90;;;;;;;;;;4996047;28;20779;-68
2022/04/06 12:16:55;;;;;;;1999.90;999.90;;;;;;;;;;4995669;28;20695;-68
2022/04/06 12:19:40;;;;;;;1999.90;999.90;;;;;;;;;;4995067;28;20600;-68
2022/04/06 12:22:26;;;;;;;1999.90;999.90;;;;;;;;;;4995890;28;20205;-68
2022/04/06 12:25:25;;;;;;;1999.90;999.90;;;;;;;;;;4995700;28;20222;-68
2022/04/06 12:28:13;;;;;;;1999.90;999.90;;;;;;;;;;4994914;28;20577;-69
2022/04/06 12:30:59;;;;;;;1999.90;999.90;;;;;;;;;;4995354;28;20225;-68
2022/04/06 12:33:45;;;;;;;1999.90;999.90;;;;;;;;;;4995391;28;20292;-68
2022/04/06 12:36:31;;;;;;;1999.90;999.90;;;;;;;;;;4995605;28;20211;-68
2022/04/06 12:39:16;;;;;;;1999.90;999.90;;;;;;;;;;4994695;28;20237;-68
2022/04/06 12:42:05;;;;;;;1999.90;999.90;;;;;;;;;;4995418;28;20310;-69
2022/04/06 12:44:58;;;;;;;1999.90;999.90;;;;;;;;;;4995540;28;20237;-68
2022/04/06 12:47:43;;;;;;;1999.90;999.90;;;;;;;;;;4994953;28;20591;-68
2022/04/06 12:50:37;;;;;;;1999.90;999.90;;;;;;;;;;4994970;28;20299;-70
2022/04/06 12:53:21;;;;;;;1999.90;999.90;;;;;;;;;;4994911;28;20421;-68
2022/04/06 12:56:09;;;;;;;1999.90;999.90;;;;;;;;;;4995458;28;20212;-69
2022/04/06 12:59:08;;;;;;;1999.90;999.90;;;;;;;;;;4994252;28;20228;-68
2022/04/06 13:01:54;;;;;;;1999.90;999.90;;;;;;;;;;4995182;28;20290;-68
2022/04/06 13:04:39;;;;;;;1999.90;999.90;;;;;;;;;;4993691;28;20703;-67
2022/04/06 13:07:25;;;;;;;1999.90;999.90;;;;;;;;;;4994964;28;20204;-65
2022/04/06 13:10:10;;;;;;;1999.90;999.90;;;;;;;;;;4994521;28;20240;-67
2022/04/06 13:12:57;;;;;;;1999.90;999.90;;;;;;;;;;4994840;28;20279;-68
2022/04/06 13:15:42;;;;;;;1999.90;999.90;;;;;;;;;;4994633;28;20207;-68
2022/04/06 13:18:28;;;;;;;1999.90;999.90;;;;;;;;;;4993979;28;20326;-67
2022/04/06 13:21:14;;;;;;;1999.90;999.90;;;;;;;;;;4994715;28;20208;-66
2022/04/06 13:23:58;;;;;;;1999.90;999.90;;;;;;;;;;4994792;28;20210;-67
2022/04/06 13:26:44;;;;;;;1999.90;999.90;;;;;;;;;;4994689;28;20675;-69
2022/04/06 13:29:29;;;;;;;1999.90;999.90;;;;;;;;;;4993422;28;20242;-70
2022/04/06 13:32:13;;;;;;;1999.90;999.90;;;;;;;;;;4994590;28;20212;-69
2022/04/06 13:35:00;;;;;;;1999.90;999.90;;;;;;;;;;4994563;28;20207;-69
2022/04/06 13:37:45;;;;;;;1999.90;999.90;;;;;;;;;;4993774;28;20327;-69
2022/04/06 13:40:30;;;;;;;1999.90;999.90;;;;;;;;;;4994254;28;20226;-68
2022/04/06 13:43:15;;;;;;;1999.90;999.90;;;;;;;;;;4994386;28;20707;-69
2022/04/06 13:46:00;;;;;;;1999.90;999.90;;;;;;;;;;4994290;28;20347;-69
2022/04/06 13:48:45;;;;;;;1999.90;999.90;;;;;;;;;;4993398;28;20229;-69
2022/04/06 13:51:31;;;;;;;1999.90;999.90;;;;;;;;;;4994020;28;20228;-69
2022/04/06 13:54:17;;;;;;;1999.90;999.90;;;;;;;;;;4994142;28;20291;-70
2022/04/06 13:57:02;;;;;;;1999.90;999.90;;;;;;;;;;4993417;28;20421;-69
2022/04/06 13:59:47;;;;;;;1999.90;999.90;;;;;;;;;;4993350;28;20717;-69
2022/04/06 14:02:32;;;;;;;1999.90;999.90;;;;;;;;;;4993960;28;20211;-69
2022/04/06 14:05:19;;;;;;;1999.90;999.90;;;;;;;;;;4993906;28;20207;-71
2022/04/06 14:08:05;;;;;;;1999.90;999.90;;;;;;;;;;4993440;28;20246;-69
2022/04/06 14:10:50;;;;;;;1999.90;999.90;;;;;;;;;;4993574;28;20218;-67
2022/04/06 14:13:35;;;;;;;1999.90;999.90;;;;;;;;;;4993682;28;20331;-67
2022/04/06 14:16:20;;;;;;;1999.90;999.90;;;;;;;;;;4993314;28;20203;-67
2022/04/06 14:19:07;;;;;;;1999.90;999.90;;;;;;;;;;4992937;28;20442;-68
2022/04/06 14:21:52;;;;;;;1999.90;999.90;;;;;;;;;;4993275;28;20694;-68
2022/04/06 14:25:14;;;;;;;1999.90;999.90;;;;;;;;;;4993534;28;20603;-67
2022/04/06 14:27:44;;;;;;;1999.90;999.90;;;;;;;;;;4992798;28;20203;-67
2022/04/06 14:30:28;;;;;;;1999.90;999.90;;;;;;;;;;4993344;28;20278;-70
2022/04/06 14:33:13;;;;;;;1999.90;999.90;;;;;;;;;;4993417;28;20266;-70
2022/04/06 14:35:58;;;;;;;1999.90;999.90;;;;;;;;;;4993370;28;20223;-70
2022/04/06 14:38:43;;;;;;;1999.90;999.90;;;;;;;;;;4992414;28;20239;-70
2022/04/06 14:41:29;;;;;;;1999.90;999.90;;;;;;;;;;4993229;28;20201;-70
2022/04/06 14:44:14;;;;;;;1999.90;999.90;;;;;;;;;;4993204;28;20581;-70
2022/04/06 14:46:59;;;;;;;1999.90;999.90;;;;;;;;;;4993120;28;20659;-70
2022/04/06 14:49:44;;;;;;;1999.90;999.90;;;;;;;;;;4992400;28;20318;-70
2022/04/06 14:52:29;;;;;;;1999.90;999.90;;;;;;;;;;4993585;28;20606;-70
2022/04/06 14:55:13;;;;;;;1999.90;999.90;;;;;;;;;;4992888;28;20742;-70
2022/04/06 14:58:00;;;;;;;1999.90;999.90;;;;;;;;;;4992338;28;20207;-70
2022/04/06 15:00:45;;;;;;;1999.90;999.90;;;;;;;;;;4993845;28;20351;-70
2022/04/06 15:03:30;;;;;;;1999.90;999.90;;;;;;;;;;5001233;28;20207;-69
2022/04/06 15:06:16;;;;;;;1999.90;999.90;;;;;;;;;;4996731;28;20659;-69
2022/04/06 15:09:01;;;;;;;1999.90;999.90;;;;;;;;;;4992226;28;20314;-68
2022/04/06 15:11:46;;;;;;;1999.90;999.90;;;;;;;;;;4992548;28;20499;-69
2022/04/06 15:14:32;;;;;;;1999.90;999.90;;;;;;;;;;4992850;28;20207;-69
2022/04/06 15:17:17;;;;;;;1999.90;999.90;;;;;;;;;;4992754;28;20242;-70
2022/04/06 15:20:02;;;;;;;1999.90;999.90;;;;;;;;;;4992743;28;20238;-70
2022/04/06 15:22:47;;;;;;;1999.90;999.90;;;;;;;;;;4992915;28;20211;-69
2022/04/06 15:25:33;;;;;;;1999.90;999.90;;;;;;;;;;4993849;28;20208;-70
2022/04/06 15:28:18;;;;;;;1999.90;999.90;;;;;;;;;;4991411;28;20206;-69
2022/04/06 15:31:04;;;;;;;1999.90;999.90;;;;;;;;;;4992771;28;20437;-70
2022/04/06 15:33:49;;;;;;;1999.90;999.90;;;;;;;;;;4993054;28;20698;-69
2022/04/06 15:39:38;;;;;;;1999.90;999.90;;;;;;;;;;4991387;28;20227;-71
2022/04/06 15:42:27;;;;;;;1999.90;999.90;;;;;;;;;;4992588;28;20338;-69
2022/04/06 15:45:12;;;;;;;1999.90;999.90;;;;;;;;;;4992424;28;20273;-69
2022/04/06 15:47:58;;;;;;;1999.90;999.90;;;;;;;;;;4991841;28;20590;-69
2022/04/06 15:50:43;;;;;;;1999.90;999.90;;;;;;;;;;4992433;28;20605;-69
2022/04/06 15:53:28;;;;;;;1999.90;999.90;;;;;;;;;;4992541;28;20698;-69
2022/04/06 15:56:13;;;;;;;1999.90;999.90;;;;;;;;;;4992800;28;20211;-69
2022/04/06 15:58:59;;;;;;;1999.90;999.90;;;;;;;;;;4992372;28;20720;-69
2022/04/06 16:01:45;;;;;;;1999.90;999.90;;;;;;;;;;4991763;28;20406;-71
2022/04/06 16:04:31;;;;;;;1999.90;999.90;;;;;;;;;;4993099;28;20211;-70
2022/04/06 16:07:16;;;;;;;1999.90;999.90;;;;;;;;;;4992357;28;20350;-70
2022/04/06 16:10:02;;;;;;;1999.90;999.90;;;;;;;;;;4991803;28;20285;-70
2022/04/06 16:12:47;;;;;;;1999.90;999.90;;;;;;;;;;4992027;28;20702;-70
2022/04/06 16:15:31;;;;;;;1999.90;999.90;;;;;;;;;;4992254;28;20203;-69
2022/04/06 16:18:16;;;;;;;1999.90;999.90;;;;;;;;;;4991417;28;20272;-70
2022/04/06 16:21:03;;;;;;;1999.90;999.90;;;;;;;;;;4992186;28;20595;-70
2022/04/06 16:23:48;;;;;;;1999.90;999.90;;;;;;;;;;4992220;28;20270;-70
2022/04/06 16:26:32;;;;;;;1999.90;999.90;;;;;;;;;;4992239;28;20207;-71
2022/04/06 16:29:18;;;;;;;1999.90;999.90;;;;;;;;;;4991450;28;20718;-70
2022/04/06 16:32:03;;;;;;;1999.90;999.90;;;;;;;;;;4991952;28;20232;-70
2022/04/06 16:34:48;;;;;;;1999.90;999.90;;;;;;;;;;4992283;28;20215;-70
2022/04/06 16:37:34;;;;;;;1999.90;999.90;;;;;;;;;;4992180;28;20284;-70
2022/04/06 16:40:19;;;;;;;1999.90;999.90;;;;;;;;;;4995458;28;20228;-70
2022/04/06 16:43:04;;;;;;;1999.90;999.90;;;;;;;;;;4995648;28;20203;-70
2022/04/06 16:45:49;;;;;;;1999.90;999.90;;;;;;;;;;4995572;28;20274;-70
2022/04/06 16:48:34;;;;;;;1999.90;999.90;;;;;;;;;;4994899;28;20234;-70
2022/04/06 16:54:23;;;;;;;1999.90;999.90;;;;;;;;;;4995380;28;20287;-70
2022/04/06 16:57:08;;;;;;;1999.90;999.90;;;;;;;;;;4995527;28;20255;-70
2022/04/06 16:59:53;;;;;;;1999.90;999.90;;;;;;;;;;4994568;28;20725;-70
2022/04/06 17:02:39;;;;;;;1999.90;999.90;;;;;;;;;;4995341;28;20223;-70
2022/04/06 17:05:26;;;;;;;1999.90;999.90;;;;;;;;;;4994975;28;20414;-70
2022/04/06 17:08:11;;;;;;;1999.90;999.90;;;;;;;;;;4994512;28;20308;-70
2022/04/06 17:10:57;;;;;;;1999.90;999.90;;;;;;;;;;4994898;28;20599;-70
2022/04/06 17:13:42;;;;;;;1999.90;999.90;;;;;;;;;;4995167;28;20307;-70
2022/04/06 17:16:27;;;;;;;1999.90;999.90;;;;;;;;;;4995283;28;20563;-70
2022/04/06 17:19:14;;;;;;;1999.90;999.90;;;;;;;;;;4994078;28;20223;-70
2022/04/06 17:21:59;;;;;;;1999.90;999.90;;;;;;;;;;4994987;28;20270;-70
2022/04/06 17:24:43;;;;;;;1999.90;999.90;;;;;;;;;;4994847;28;20210;-70
2022/04/06 17:27:29;;;;;;;1999.90;999.90;;;;;;;;;;4994834;28;20215;-70
2022/04/06 17:30:14;;;;;;;1999.90;999.90;;;;;;;;;;4994505;28;20223;-70
2022/04/06 17:33:00;;;;;;;1999.90;999.90;;;;;;;;;;4994688;28;20270;-70
2022/04/06 17:35:45;;;;;;;1999.90;999.90;;;;;;;;;;4993560;28;20405;-70
2022/04/06 17:38:31;;;;;;;1999.90;999.90;;;;;;;;;;4993756;28;20740;-70
2022/04/06 17:41:17;;;;;;;1999.90;999.90;;;;;;;;;;4994802;28;20692;-70
2022/04/06 17:44:04;;;;;;;1999.90;999.90;;;;;;;;;;4994857;28;20251;-70
2022/04/06 17:46:49;;;;;;;1999.90;999.90;;;;;;;;;;5011452;28;20315;-70
2022/04/06 17:49:34;;;;;;;1999.90;999.90;;;;;;;;;;5011694;28;20258;-71
2022/04/06 17:52:19;;;;;;;1999.90;999.90;;;;;;;;;;5013616;28;20317;-72
2022/04/06 17:55:04;;;;;;;1999.90;999.90;;;;;;;;;;5013442;28;20584;-70
2022/04/06 17:57:49;;;;;;;1999.90;999.90;;;;;;;;;;4993404;28;20211;-70
2022/04/06 18:00:36;;;;;;;1999.90;999.90;;;;;;;;;;5013527;28;20230;-70
2022/04/06 18:03:21;;;;;;;1999.90;999.90;;;;;;;;;;5013791;28;20705;-71
2022/04/06 18:06:06;;;;;;;1999.90;999.90;;;;;;;;;;5013626;28;20207;-71
2022/04/06 18:08:51;;;;;;;1999.90;999.90;;;;;;;;;;5012639;28;20223;-71
2022/04/06 18:14:39;;;;;;;1999.90;999.90;;;;;;;;;;5013193;28;20202;-71
2022/04/06 18:17:25;;;;;;;1999.90;999.90;;;;;;;;;;4995876;28;20242;-72
2022/04/06 18:20:11;;;;;;;1999.90;999.90;;;;;;;;;;5004928;28;20757;-72
2022/04/06 18:22:56;;;;;;;1999.90;999.90;;;;;;;;;;5011025;28;20247;-72
2022/04/06 18:25:41;;;;;;;1999.90;999.90;;;;;;;;;;5013232;28;20199;-71
2022/04/06 18:28:26;;;;;;;1999.90;999.90;;;;;;;;;;5008380;28;20233;-71
2022/04/06 18:31:11;;;;;;;1999.90;999.90;;;;;;;;;;5006230;28;20584;-70
2022/04/06 18:33:57;;;;;;;1999.90;999.90;;;;;;;;;;5008753;28;20209;-71
2022/04/06 18:36:44;;;;;;;1999.90;999.90;;;;;;;;;;5012108;28;20213;-71
2022/04/06 18:39:29;;;;;;;1999.90;999.90;;;;;;;;;;5011005;28;20233;-72
2022/04/06 18:42:14;;;;;;;1999.90;999.90;;;;;;;;;;5012198;28;20270;-73
2022/04/06 18:44:59;;;;;;;1999.90;999.90;;;;;;;;;;5004045;28;20222;-71
2022/04/06 18:47:44;;;;;;;1999.90;999.90;;;;;;;;;;5012177;28;20859;-71
2022/04/06 18:50:30;;;;;;;1999.90;999.90;;;;;;;;;;5011869;28;20246;-71
2022/04/06 18:53:15;;;;;;;1999.90;999.90;;;;;;;;;;4997267;28;20206;-71
2022/04/06 18:56:00;;;;;;;1999.90;999.90;;;;;;;;;;4994937;28;20276;-71
2022/04/06 18:58:45;;;;;;;1999.90;999.90;;;;;;;;;;5011720;28;20234;-70
2022/04/06 19:01:30;;;;;;;1999.90;999.90;;;;;;;;;;5008283;28;20199;-71
2022/04/06 19:04:15;;;;;;;1999.90;999.90;;;;;;;;;;5006724;28;20286;-70
2022/04/06 19:07:01;;;;;;;1999.90;999.90;;;;;;;;;;4992826;28;20211;-70
2022/04/06 19:09:46;;;;;;;1999.90;999.90;;;;;;;;;;5006554;28;20431;-71
2022/04/06 19:12:33;;;;;;;1999.90;999.90;;;;;;;;;;5012214;28;20717;-71
2022/04/06 19:15:20;;;;;;;1999.90;999.90;;;;;;;;;;5012011;28;20202;-70
2022/04/06 19:18:06;;;;;;;1999.90;999.90;;;;;;;;;;5011514;28;20226;-71
2022/04/06 19:20:51;;;;;;;1999.90;999.90;;;;;;;;;;5012010;28;20696;-70
2022/04/06 19:23:37;;;;;;;1999.90;999.90;;;;;;;;;;5012330;28;20580;-71
2022/04/06 19:26:22;;;;;;;1999.90;999.90;;;;;;;;;;5011692;28;20214;-71
2022/04/06 19:29:07;;;;;;;1999.90;999.90;;;;;;;;;;5011388;28;20243;-70
2022/04/06 19:31:55;;;;;;;1999.90;999.90;;;;;;;;;;5012018;28;20357;-70
2022/04/06 19:34:40;;;;;;;1999.90;999.90;;;;;;;;;;5012084;28;20756;-70
2022/04/06 19:37:25;;;;;;;1999.90;999.90;;;;;;;;;;5011939;28;20206;-70
2022/04/06 19:40:13;;;;;;;1999.90;999.90;;;;;;;;;;5000788;28;20760;-68
2022/04/06 19:42:58;;;;;;;1999.90;999.90;;;;;;;;;;4991637;28;20278;-70
2022/04/06 19:45:43;;;;;;;1999.90;999.90;;;;;;;;;;4997988;28;20843;-71
2022/04/06 19:48:29;;;;;;;1999.90;999.90;;;;;;;;;;4999625;28;20226;-70
2022/04/06 19:51:14;;;;;;;1999.90;999.90;;;;;;;;;;5003130;28;20220;-70
2022/04/06 19:53:59;;;;;;;1999.90;999.90;;;;;;;;;;5008957;28;20249;-71
2022/04/06 19:56:45;;;;;;;1999.90;999.90;;;;;;;;;;4991406;28;20697;-70
2022/04/06 19:59:30;;;;;;;1999.90;999.90;;;;;;;;;;5002309;28;20231;-70
2022/04/06 20:02:15;;;;;;;1999.90;999.90;;;;;;;;;;5007347;28;20210;-70
2022/04/06 20:05:00;;;;;;;1999.90;999.90;;;;;;;;;;4996385;28;20207;-70
2022/04/06 20:07:45;;;;;;;1999.90;999.90;;;;;;;;;;4999346;28;21130;-70
2022/04/06 20:10:30;;;;;;;1999.90;999.90;;;;;;;;;;4999059;28;20225;-70
2022/04/06 20:13:17;;;;;;;1999.90;999.90;;;;;;;;;;5002982;28;20423;-70
2022/04/06 20:16:03;;;;;;;1999.90;999.90;;;;;;;;;;5002995;28;20694;-70
2022/04/06 20:18:48;;;;;;;1999.90;999.90;;;;;;;;;;5011421;28;20370;-70
2022/04/06 20:21:33;;;;;;;1999.90;999.90;;;;;;;;;;4997643;28;20203;-70